Terminal Aerodrome Forecast
Issued by NWS Green Bay, WI

Home | Current Version | Previous Version | Graphics & Text | Print | Product List | Glossary On
Versions: 1 2 3 4 5 6 7 8 9 10 11 12 13 14 15 16 17 18 19 20 21 22 23 24 25 26 27 28
000
FTUS43 KGRB 221700
TAFGRB
TAF
KGRB 221736Z 2218/2318 16005KT P6SM SCT030
     FM230000 15005KT P6SM SCT250
     FM230800 18004KT P6SM BKN250
      TEMPO 2308/2312 3SM BR
     FM231600 19008KT P6SM OVC050=

USA.gov is the U.S. government's official web portal to all federal, state and local government web resources and services.